sensor_id;sensor_type;location;lat;lon;timestamp;P1;durP1;ratioP1;P2;durP2;ratioP2
17832;SDS011;9041;49.718;21.798;2023-07-24T00:02:21;7.13;;;3.03;;
17832;SDS011;9041;49.718;21.798;2023-07-24T00:04:48;6.72;;;3.22;;
17832;SDS011;9041;49.718;21.798;2023-07-24T00:07:15;6.97;;;3.33;;
17832;SDS011;9041;49.718;21.798;2023-07-24T00:09:42;9.00;;;3.33;;
17832;SDS011;9041;49.718;21.798;2023-07-24T00:12:08;8.10;;;3.55;;
17832;SDS011;9041;49.718;21.798;2023-07-24T00:14:35;6.10;;;3.40;;
17832;SDS011;9041;49.718;21.798;2023-07-24T00:17:01;8.75;;;3.20;;
17832;SDS011;9041;49.718;21.798;2023-07-24T00:19:30;8.18;;;3.22;;
17832;SDS011;9041;49.718;21.798;2023-07-24T00:21:57;9.25;;;3.20;;
17832;SDS011;9041;49.718;21.798;2023-07-24T00:24:23;4.97;;;3.08;;
17832;SDS011;9041;49.718;21.798;2023-07-24T00:26:50;6.70;;;3.22;;
17832;SDS011;9041;49.718;21.798;2023-07-24T00:29:16;5.20;;;3.13;;
17832;SDS011;9041;49.718;21.798;2023-07-24T00:31:43;6.10;;;3.13;;
17832;SDS011;9041;49.718;21.798;2023-07-24T00:34:09;7.53;;;2.95;;
17832;SDS011;9041;49.718;21.798;2023-07-24T00:36:38;7.38;;;3.20;;
17832;SDS011;9041;49.718;21.798;2023-07-24T00:39:04;6.88;;;3.00;;
17832;SDS011;9041;49.718;21.798;2023-07-24T00:41:31;7.07;;;3.35;;
17832;SDS011;9041;49.718;21.798;2023-07-24T00:43:59;7.28;;;3.08;;
17832;SDS011;9041;49.718;21.798;2023-07-24T00:46:26;7.95;;;3.40;;
17832;SDS011;9041;49.718;21.798;2023-07-24T00:48:55;5.80;;;3.22;;
17832;SDS011;9041;49.718;21.798;2023-07-24T00:51:21;6.40;;;3.25;;
17832;SDS011;9041;49.718;21.798;2023-07-24T00:53:49;7.30;;;3.33;;
17832;SDS011;9041;49.718;21.798;2023-07-24T00:56:16;5.15;;;2.67;;
17832;SDS011;9041;49.718;21.798;2023-07-24T00:58:42;5.47;;;3.10;;
17832;SDS011;9041;49.718;21.798;2023-07-24T01:01:09;7.95;;;2.90;;
17832;SDS011;9041;49.718;21.798;2023-07-24T01:03:37;10.90;;;3.30;;
17832;SDS011;9041;49.718;21.798;2023-07-24T01:06:03;6.40;;;2.97;;
17832;SDS011;9041;49.718;21.798;2023-07-24T01:08:30;8.77;;;3.85;;
17832;SDS011;9041;49.718;21.798;2023-07-24T01:11:00;7.47;;;2.90;;
17832;SDS011;9041;49.718;21.798;2023-07-24T01:13:31;5.07;;;2.95;;
17832;SDS011;9041;49.718;21.798;2023-07-24T01:16:00;8.25;;;3.53;;
17832;SDS011;9041;49.718;21.798;2023-07-24T01:18:30;3.75;;;2.58;;
17832;SDS011;9041;49.718;21.798;2023-07-24T01:20:57;6.82;;;3.28;;
17832;SDS011;9041;49.718;21.798;2023-07-24T01:23:29;8.55;;;3.28;;
17832;SDS011;9041;49.718;21.798;2023-07-24T01:26:05;7.03;;;3.25;;
17832;SDS011;9041;49.718;21.798;2023-07-24T01:28:33;7.03;;;3.20;;
17832;SDS011;9041;49.718;21.798;2023-07-24T01:31:02;6.13;;;3.35;;
17832;SDS011;9041;49.718;21.798;2023-07-24T01:33:29;5.85;;;2.88;;
17832;SDS011;9041;49.718;21.798;2023-07-24T01:35:58;6.80;;;3.30;;
17832;SDS011;9041;49.718;21.798;2023-07-24T01:38:25;6.13;;;3.30;;
17832;SDS011;9041;49.718;21.798;2023-07-24T01:40:52;7.50;;;3.53;;
17832;SDS011;9041;49.718;21.798;2023-07-24T01:43:21;8.02;;;3.70;;
17832;SDS011;9041;49.718;21.798;2023-07-24T01:45:48;6.30;;;3.38;;
17832;SDS011;9041;49.718;21.798;2023-07-24T01:48:15;5.45;;;2.92;;
17832;SDS011;9041;49.718;21.798;2023-07-24T01:50:42;6.38;;;3.63;;
17832;SDS011;9041;49.718;21.798;2023-07-24T01:53:08;7.70;;;3.85;;
17832;SDS011;9041;49.718;21.798;2023-07-24T01:55:35;6.20;;;3.40;;
17832;SDS011;9041;49.718;21.798;2023-07-24T01:58:02;12.55;;;3.80;;
17832;SDS011;9041;49.718;21.798;2023-07-24T02:00:30;7.35;;;3.08;;
17832;SDS011;9041;49.718;21.798;2023-07-24T02:02:56;7.13;;;3.67;;
17832;SDS011;9041;49.718;21.798;2023-07-24T02:05:23;7.13;;;3.22;;
17832;SDS011;9041;49.718;21.798;2023-07-24T02:07:50;4.82;;;3.55;;
17832;SDS011;9041;49.718;21.798;2023-07-24T02:10:16;5.57;;;3.70;;
17832;SDS011;9041;49.718;21.798;2023-07-24T02:12:43;7.75;;;3.80;;
17832;SDS011;9041;49.718;21.798;2023-07-24T02:15:10;11.15;;;3.97;;
17832;SDS011;9041;49.718;21.798;2023-07-24T02:17:38;6.18;;;3.15;;
17832;SDS011;9041;49.718;21.798;2023-07-24T02:20:05;6.43;;;3.83;;
17832;SDS011;9041;49.718;21.798;2023-07-24T02:22:32;6.28;;;3.22;;
17832;SDS011;9041;49.718;21.798;2023-07-24T02:24:59;8.02;;;3.30;;
17832;SDS011;9041;49.718;21.798;2023-07-24T02:27:26;5.68;;;3.20;;
17832;SDS011;9041;49.718;21.798;2023-07-24T02:29:55;7.07;;;3.45;;
17832;SDS011;9041;49.718;21.798;2023-07-24T02:32:21;8.45;;;3.40;;
17832;SDS011;9041;49.718;21.798;2023-07-24T02:34:50;5.40;;;3.40;;
17832;SDS011;9041;49.718;21.798;2023-07-24T02:37:17;5.82;;;3.22;;
17832;SDS011;9041;49.718;21.798;2023-07-24T02:39:44;8.43;;;3.40;;
17832;SDS011;9041;49.718;21.798;2023-07-24T02:42:11;5.75;;;3.17;;
17832;SDS011;9041;49.718;21.798;2023-07-24T02:44:37;7.28;;;3.00;;
17832;SDS011;9041;49.718;21.798;2023-07-24T02:47:04;5.30;;;3.40;;
17832;SDS011;9041;49.718;21.798;2023-07-24T02:49:31;7.63;;;3.72;;
17832;SDS011;9041;49.718;21.798;2023-07-24T02:51:59;9.68;;;3.13;;
17832;SDS011;9041;49.718;21.798;2023-07-24T02:54:26;10.88;;;3.45;;
17832;SDS011;9041;49.718;21.798;2023-07-24T02:56:52;10.50;;;3.03;;
17832;SDS011;9041;49.718;21.798;2023-07-24T02:59:19;5.10;;;3.10;;
17832;SDS011;9041;49.718;21.798;2023-07-24T03:01:45;6.07;;;3.17;;
17832;SDS011;9041;49.718;21.798;2023-07-24T03:04:12;6.95;;;3.30;;
17832;SDS011;9041;49.718;21.798;2023-07-24T03:06:39;7.57;;;3.33;;
17832;SDS011;9041;49.718;21.798;2023-07-24T03:09:07;7.53;;;3.35;;
17832;SDS011;9041;49.718;21.798;2023-07-24T03:11:33;5.20;;;3.15;;
17832;SDS011;9041;49.718;21.798;2023-07-24T03:14:00;6.30;;;3.40;;
17832;SDS011;9041;49.718;21.798;2023-07-24T03:16:27;6.80;;;3.13;;
17832;SDS011;9041;49.718;21.798;2023-07-24T03:18:54;11.10;;;3.47;;
17832;SDS011;9041;49.718;21.798;2023-07-24T03:21:20;5.28;;;3.13;;
17832;SDS011;9041;49.718;21.798;2023-07-24T03:23:47;5.00;;;3.15;;
17832;SDS011;9041;49.718;21.798;2023-07-24T03:26:15;7.95;;;3.10;;
17832;SDS011;9041;49.718;21.798;2023-07-24T03:28:42;5.85;;;3.35;;
17832;SDS011;9041;49.718;21.798;2023-07-24T03:31:08;7.68;;;3.33;;
17832;SDS011;9041;49.718;21.798;2023-07-24T03:33:35;6.07;;;3.05;;
17832;SDS011;9041;49.718;21.798;2023-07-24T03:36:02;8.30;;;3.60;;
17832;SDS011;9041;49.718;21.798;2023-07-24T03:38:29;6.75;;;3.58;;
17832;SDS011;9041;49.718;21.798;2023-07-24T03:40:56;5.22;;;3.03;;
17832;SDS011;9041;49.718;21.798;2023-07-24T03:43:24;8.82;;;3.28;;
17832;SDS011;9041;49.718;21.798;2023-07-24T03:45:51;6.90;;;3.10;;
17832;SDS011;9041;49.718;21.798;2023-07-24T03:48:18;8.77;;;3.28;;
17832;SDS011;9041;49.718;21.798;2023-07-24T03:50:44;5.32;;;3.03;;
17832;SDS011;9041;49.718;21.798;2023-07-24T03:53:11;5.65;;;3.13;;
17832;SDS011;9041;49.718;21.798;2023-07-24T03:55:37;7.15;;;3.40;;
17832;SDS011;9041;49.718;21.798;2023-07-24T03:58:04;11.60;;;4.07;;
17832;SDS011;9041;49.718;21.798;2023-07-24T04:00:32;6.43;;;3.55;;
17832;SDS011;9041;49.718;21.798;2023-07-24T04:02:58;7.07;;;3.38;;
17832;SDS011;9041;49.718;21.798;2023-07-24T04:05:25;11.63;;;4.55;;
17832;SDS011;9041;49.718;21.798;2023-07-24T04:07:52;7.68;;;3.33;;
17832;SDS011;9041;49.718;21.798;2023-07-24T04:10:19;10.07;;;3.33;;
17832;SDS011;9041;49.718;21.798;2023-07-24T04:12:46;9.43;;;3.30;;
17832;SDS011;9041;49.718;21.798;2023-07-24T04:15:12;7.25;;;3.17;;
17832;SDS011;9041;49.718;21.798;2023-07-24T04:17:40;6.78;;;3.20;;
17832;SDS011;9041;49.718;21.798;2023-07-24T04:20:08;7.07;;;3.13;;
17832;SDS011;9041;49.718;21.798;2023-07-24T04:22:35;7.15;;;3.35;;
17832;SDS011;9041;49.718;21.798;2023-07-24T04:25:02;7.60;;;3.10;;
17832;SDS011;9041;49.718;21.798;2023-07-24T04:27:28;4.93;;;3.05;;
17832;SDS011;9041;49.718;21.798;2023-07-24T04:29:55;8.68;;;3.42;;
17832;SDS011;9041;49.718;21.798;2023-07-24T04:32:22;6.18;;;3.47;;
17832;SDS011;9041;49.718;21.798;2023-07-24T04:34:50;12.23;;;3.15;;
17832;SDS011;9041;49.718;21.798;2023-07-24T04:37:16;8.52;;;3.35;;
17832;SDS011;9041;49.718;21.798;2023-07-24T04:39:43;6.03;;;3.20;;
17832;SDS011;9041;49.718;21.798;2023-07-24T04:42:10;7.05;;;3.72;;
17832;SDS011;9041;49.718;21.798;2023-07-24T04:44:36;5.10;;;3.30;;
17832;SDS011;9041;49.718;21.798;2023-07-24T04:47:03;6.65;;;3.25;;
17832;SDS011;9041;49.718;21.798;2023-07-24T04:49:30;6.25;;;3.30;;
17832;SDS011;9041;49.718;21.798;2023-07-24T04:51:59;13.80;;;3.22;;
17832;SDS011;9041;49.718;21.798;2023-07-24T04:54:25;8.50;;;3.58;;
17832;SDS011;9041;49.718;21.798;2023-07-24T04:56:52;9.25;;;3.20;;
17832;SDS011;9041;49.718;21.798;2023-07-24T04:59:19;8.63;;;3.50;;
17832;SDS011;9041;49.718;21.798;2023-07-24T05:01:45;7.57;;;3.30;;
17832;SDS011;9041;49.718;21.798;2023-07-24T05:04:12;12.55;;;4.10;;
17832;SDS011;9041;49.718;21.798;2023-07-24T05:06:38;6.80;;;3.40;;
17832;SDS011;9041;49.718;21.798;2023-07-24T05:09:07;8.15;;;3.30;;
17832;SDS011;9041;49.718;21.798;2023-07-24T05:11:33;4.78;;;2.90;;
17832;SDS011;9041;49.718;21.798;2023-07-24T05:14:00;6.10;;;3.30;;
17832;SDS011;9041;49.718;21.798;2023-07-24T05:16:26;5.97;;;3.65;;
17832;SDS011;9041;49.718;21.798;2023-07-24T05:18:53;5.90;;;3.53;;
17832;SDS011;9041;49.718;21.798;2023-07-24T05:21:19;6.40;;;3.17;;
17832;SDS011;9041;49.718;21.798;2023-07-24T05:23:46;7.15;;;3.13;;
17832;SDS011;9041;49.718;21.798;2023-07-24T05:26:14;6.28;;;3.28;;
17832;SDS011;9041;49.718;21.798;2023-07-24T05:28:41;15.10;;;4.07;;
17832;SDS011;9041;49.718;21.798;2023-07-24T05:31:07;5.07;;;3.03;;
17832;SDS011;9041;49.718;21.798;2023-07-24T05:33:34;8.15;;;3.72;;
17832;SDS011;9041;49.718;21.798;2023-07-24T05:36:01;6.55;;;3.50;;
17832;SDS011;9041;49.718;21.798;2023-07-24T05:38:29;4.03;;;2.92;;
17832;SDS011;9041;49.718;21.798;2023-07-24T05:40:56;10.07;;;3.22;;
17832;SDS011;9041;49.718;21.798;2023-07-24T05:43:24;6.70;;;3.20;;
17832;SDS011;9041;49.718;21.798;2023-07-24T05:45:52;6.43;;;3.72;;
17832;SDS011;9041;49.718;21.798;2023-07-24T05:48:19;8.25;;;3.60;;
17832;SDS011;9041;49.718;21.798;2023-07-24T05:50:46;6.03;;;3.28;;
17832;SDS011;9041;49.718;21.798;2023-07-24T05:53:13;13.77;;;4.20;;
17832;SDS011;9041;49.718;21.798;2023-07-24T05:55:40;18.17;;;4.38;;
17832;SDS011;9041;49.718;21.798;2023-07-24T05:58:07;13.95;;;3.95;;
17832;SDS011;9041;49.718;21.798;2023-07-24T06:00:35;11.60;;;4.00;;
17832;SDS011;9041;49.718;21.798;2023-07-24T06:03:02;8.90;;;3.50;;
17832;SDS011;9041;49.718;21.798;2023-07-24T06:05:29;4.97;;;3.50;;
17832;SDS011;9041;49.718;21.798;2023-07-24T06:07:55;7.43;;;3.67;;
17832;SDS011;9041;49.718;21.798;2023-07-24T06:10:22;9.10;;;3.80;;
17832;SDS011;9041;49.718;21.798;2023-07-24T06:12:49;11.48;;;3.65;;
17832;SDS011;9041;49.718;21.798;2023-07-24T06:15:15;5.82;;;3.63;;
17832;SDS011;9041;49.718;21.798;2023-07-24T06:17:43;9.30;;;3.40;;
17832;SDS011;9041;49.718;21.798;2023-07-24T06:20:10;4.93;;;3.13;;
17832;SDS011;9041;49.718;21.798;2023-07-24T06:22:37;6.40;;;3.28;;
17832;SDS011;9041;49.718;21.798;2023-07-24T06:25:03;7.88;;;3.55;;
17832;SDS011;9041;49.718;21.798;2023-07-24T06:27:31;8.15;;;3.00;;
17832;SDS011;9041;49.718;21.798;2023-07-24T06:29:57;7.50;;;3.20;;
17832;SDS011;9041;49.718;21.798;2023-07-24T06:32:24;8.90;;;3.10;;
17832;SDS011;9041;49.718;21.798;2023-07-24T06:34:52;7.22;;;3.38;;
17832;SDS011;9041;49.718;21.798;2023-07-24T06:37:18;5.20;;;3.10;;
17832;SDS011;9041;49.718;21.798;2023-07-24T06:39:45;8.25;;;3.70;;
17832;SDS011;9041;49.718;21.798;2023-07-24T06:42:12;6.30;;;3.33;;
17832;SDS011;9041;49.718;21.798;2023-07-24T06:44:39;8.43;;;3.20;;
17832;SDS011;9041;49.718;21.798;2023-07-24T06:47:05;10.38;;;3.65;;
17832;SDS011;9041;49.718;21.798;2023-07-24T06:49:32;5.55;;;3.38;;
17832;SDS011;9041;49.718;21.798;2023-07-24T06:52:00;8.27;;;3.80;;
17832;SDS011;9041;49.718;21.798;2023-07-24T06:54:26;8.77;;;3.80;;
17832;SDS011;9041;49.718;21.798;2023-07-24T06:56:53;6.70;;;3.35;;
17832;SDS011;9041;49.718;21.798;2023-07-24T06:59:19;6.43;;;3.33;;
17832;SDS011;9041;49.718;21.798;2023-07-24T07:01:46;7.60;;;3.40;;
17832;SDS011;9041;49.718;21.798;2023-07-24T07:04:12;7.18;;;3.22;;
17832;SDS011;9041;49.718;21.798;2023-07-24T07:06:39;3.95;;;3.08;;
17832;SDS011;9041;49.718;21.798;2023-07-24T07:09:07;8.45;;;4.03;;
17832;SDS011;9041;49.718;21.798;2023-07-24T07:11:33;8.75;;;3.90;;
17832;SDS011;9041;49.718;21.798;2023-07-24T07:13:59;7.10;;;3.30;;
17832;SDS011;9041;49.718;21.798;2023-07-24T07:16:26;9.35;;;4.25;;
17832;SDS011;9041;49.718;21.798;2023-07-24T07:18:52;8.00;;;3.83;;
17832;SDS011;9041;49.718;21.798;2023-07-24T07:21:19;9.75;;;3.58;;
17832;SDS011;9041;49.718;21.798;2023-07-24T07:23:45;6.93;;;3.65;;
17832;SDS011;9041;49.718;21.798;2023-07-24T07:26:13;9.05;;;3.72;;
17832;SDS011;9041;49.718;21.798;2023-07-24T07:28:40;7.68;;;3.58;;
17832;SDS011;9041;49.718;21.798;2023-07-24T07:31:07;8.25;;;4.07;;
17832;SDS011;9041;49.718;21.798;2023-07-24T07:33:34;11.77;;;4.28;;
17832;SDS011;9041;49.718;21.798;2023-07-24T07:36:00;6.35;;;3.95;;
17832;SDS011;9041;49.718;21.798;2023-07-24T07:38:27;7.18;;;3.72;;
17832;SDS011;9041;49.718;21.798;2023-07-24T07:40:54;6.10;;;3.78;;
17832;SDS011;9041;49.718;21.798;2023-07-24T07:43:22;10.93;;;4.20;;
17832;SDS011;9041;49.718;21.798;2023-07-24T07:45:48;6.60;;;3.85;;
17832;SDS011;9041;49.718;21.798;2023-07-24T07:48:15;9.27;;;3.60;;
17832;SDS011;9041;49.718;21.798;2023-07-24T07:50:42;6.78;;;3.40;;
17832;SDS011;9041;49.718;21.798;2023-07-24T07:53:11;7.47;;;3.67;;
17832;SDS011;9041;49.718;21.798;2023-07-24T07:55:37;5.40;;;4.10;;
17832;SDS011;9041;49.718;21.798;2023-07-24T07:58:04;6.80;;;3.67;;
17832;SDS011;9041;49.718;21.798;2023-07-24T08:00:32;7.63;;;3.53;;
17832;SDS011;9041;49.718;21.798;2023-07-24T08:02:59;10.15;;;3.75;;
17832;SDS011;9041;49.718;21.798;2023-07-24T08:05:25;6.78;;;3.85;;
17832;SDS011;9041;49.718;21.798;2023-07-24T08:07:52;7.20;;;3.83;;
17832;SDS011;9041;49.718;21.798;2023-07-24T08:10:19;6.95;;;3.83;;
17832;SDS011;9041;49.718;21.798;2023-07-24T08:12:45;4.95;;;3.88;;
17832;SDS011;9041;49.718;21.798;2023-07-24T08:15:12;5.25;;;3.85;;
17832;SDS011;9041;49.718;21.798;2023-07-24T08:17:40;6.70;;;3.63;;
17832;SDS011;9041;49.718;21.798;2023-07-24T08:20:07;7.80;;;3.65;;
17832;SDS011;9041;49.718;21.798;2023-07-24T08:22:34;7.70;;;3.78;;
17832;SDS011;9041;49.718;21.798;2023-07-24T08:25:01;7.40;;;3.95;;
17832;SDS011;9041;49.718;21.798;2023-07-24T08:27:28;11.10;;;4.15;;
17832;SDS011;9041;49.718;21.798;2023-07-24T08:29:54;6.07;;;4.20;;
17832;SDS011;9041;49.718;21.798;2023-07-24T08:32:21;10.88;;;4.30;;
17832;SDS011;9041;49.718;21.798;2023-07-24T08:34:49;9.07;;;4.00;;
17832;SDS011;9041;49.718;21.798;2023-07-24T08:37:15;9.95;;;3.80;;
17832;SDS011;9041;49.718;21.798;2023-07-24T08:39:42;8.30;;;4.13;;
17832;SDS011;9041;49.718;21.798;2023-07-24T08:42:09;6.55;;;3.40;;
17832;SDS011;9041;49.718;21.798;2023-07-24T08:44:37;8.70;;;4.30;;
17832;SDS011;9041;49.718;21.798;2023-07-24T08:47:04;7.60;;;4.28;;
17832;SDS011;9041;49.718;21.798;2023-07-24T08:49:32;7.40;;;4.30;;
17832;SDS011;9041;49.718;21.798;2023-07-24T08:52:00;5.75;;;3.88;;
17832;SDS011;9041;49.718;21.798;2023-07-24T08:54:27;6.30;;;4.70;;
17832;SDS011;9041;49.718;21.798;2023-07-24T08:56:54;10.18;;;4.43;;
17832;SDS011;9041;49.718;21.798;2023-07-24T08:59:20;9.25;;;5.50;;
17832;SDS011;9041;49.718;21.798;2023-07-24T09:01:47;9.18;;;4.57;;
17832;SDS011;9041;49.718;21.798;2023-07-24T09:04:13;6.35;;;4.30;;
17832;SDS011;9041;49.718;21.798;2023-07-24T09:06:40;9.10;;;4.45;;
17832;SDS011;9041;49.718;21.798;2023-07-24T09:09:13;12.60;;;5.18;;
17832;SDS011;9041;49.718;21.798;2023-07-24T09:11:48;9.50;;;5.18;;
17832;SDS011;9041;49.718;21.798;2023-07-24T09:14:21;7.70;;;5.00;;
17832;SDS011;9041;49.718;21.798;2023-07-24T09:16:48;8.88;;;4.65;;
17832;SDS011;9041;49.718;21.798;2023-07-24T09:19:18;13.68;;;4.72;;
17832;SDS011;9041;49.718;21.798;2023-07-24T09:21:44;13.73;;;4.43;;
17832;SDS011;9041;49.718;21.798;2023-07-24T09:24:13;9.10;;;4.93;;
17832;SDS011;9041;49.718;21.798;2023-07-24T09:26:47;6.97;;;4.40;;
17832;SDS011;9041;49.718;21.798;2023-07-24T09:29:14;10.48;;;4.80;;
17832;SDS011;9041;49.718;21.798;2023-07-24T09:31:41;6.68;;;4.32;;
17832;SDS011;9041;49.718;21.798;2023-07-24T09:34:13;7.85;;;4.32;;
17832;SDS011;9041;49.718;21.798;2023-07-24T09:36:40;9.90;;;5.20;;
17832;SDS011;9041;49.718;21.798;2023-07-24T09:39:07;6.60;;;4.50;;
17832;SDS011;9041;49.718;21.798;2023-07-24T09:41:37;8.30;;;4.40;;
17832;SDS011;9041;49.718;21.798;2023-07-24T09:44:05;7.25;;;4.75;;
17832;SDS011;9041;49.718;21.798;2023-07-24T09:46:31;8.20;;;4.32;;
17832;SDS011;9041;49.718;21.798;2023-07-24T09:48:58;6.97;;;4.70;;
17832;SDS011;9041;49.718;21.798;2023-07-24T09:51:25;9.50;;;4.90;;
17832;SDS011;9041;49.718;21.798;2023-07-24T09:53:52;9.25;;;5.07;;
17832;SDS011;9041;49.718;21.798;2023-07-24T09:56:22;7.32;;;5.03;;
17832;SDS011;9041;49.718;21.798;2023-07-24T09:58:50;7.00;;;4.65;;
17832;SDS011;9041;49.718;21.798;2023-07-24T10:01:20;11.00;;;4.90;;
17832;SDS011;9041;49.718;21.798;2023-07-24T10:03:47;10.90;;;5.18;;
17832;SDS011;9041;49.718;21.798;2023-07-24T10:06:15;8.20;;;5.35;;
17832;SDS011;9041;49.718;21.798;2023-07-24T10:08:42;8.45;;;5.20;;
17832;SDS011;9041;49.718;21.798;2023-07-24T10:11:09;8.48;;;4.60;;
17832;SDS011;9041;49.718;21.798;2023-07-24T10:13:38;8.80;;;5.03;;
17832;SDS011;9041;49.718;21.798;2023-07-24T10:16:06;6.80;;;5.13;;
17832;SDS011;9041;49.718;21.798;2023-07-24T10:18:34;8.45;;;5.28;;
17832;SDS011;9041;49.718;21.798;2023-07-24T10:21:01;11.18;;;5.28;;
17832;SDS011;9041;49.718;21.798;2023-07-24T10:23:30;8.80;;;5.05;;
17832;SDS011;9041;49.718;21.798;2023-07-24T10:26:01;8.63;;;4.97;;
17832;SDS011;9041;49.718;21.798;2023-07-24T10:28:30;8.38;;;4.95;;
17832;SDS011;9041;49.718;21.798;2023-07-24T10:30:57;8.00;;;5.03;;
17832;SDS011;9041;49.718;21.798;2023-07-24T10:33:29;8.25;;;5.40;;
17832;SDS011;9041;49.718;21.798;2023-07-24T10:36:03;10.95;;;5.55;;
17832;SDS011;9041;49.718;21.798;2023-07-24T10:38:32;12.02;;;5.35;;
17832;SDS011;9041;49.718;21.798;2023-07-24T10:41:01;13.25;;;5.15;;
17832;SDS011;9041;49.718;21.798;2023-07-24T10:43:28;7.07;;;4.97;;
17832;SDS011;9041;49.718;21.798;2023-07-24T10:45:55;7.53;;;5.07;;
17832;SDS011;9041;49.718;21.798;2023-07-24T10:48:23;11.15;;;5.43;;
17832;SDS011;9041;49.718;21.798;2023-07-24T10:50:52;8.45;;;4.78;;
17832;SDS011;9041;49.718;21.798;2023-07-24T10:53:19;9.60;;;4.80;;
17832;SDS011;9041;49.718;21.798;2023-07-24T10:55:47;11.05;;;5.50;;
17832;SDS011;9041;49.718;21.798;2023-07-24T10:58:15;11.80;;;5.60;;
17832;SDS011;9041;49.718;21.798;2023-07-24T11:00:42;8.73;;;5.53;;
17832;SDS011;9041;49.718;21.798;2023-07-24T11:03:10;6.82;;;5.13;;
17832;SDS011;9041;49.718;21.798;2023-07-24T11:05:40;9.70;;;5.70;;
17832;SDS011;9041;49.718;21.798;2023-07-24T11:08:10;9.02;;;5.70;;
17832;SDS011;9041;49.718;21.798;2023-07-24T11:10:43;8.77;;;5.60;;
17832;SDS011;9041;49.718;21.798;2023-07-24T11:13:15;9.25;;;5.57;;
17832;SDS011;9041;49.718;21.798;2023-07-24T11:15:43;9.38;;;5.63;;
17832;SDS011;9041;49.718;21.798;2023-07-24T11:18:09;9.48;;;6.30;;
17832;SDS011;9041;49.718;21.798;2023-07-24T11:20:36;9.77;;;6.05;;
17832;SDS011;9041;49.718;21.798;2023-07-24T11:23:05;8.60;;;6.03;;
17832;SDS011;9041;49.718;21.798;2023-07-24T11:25:32;9.70;;;5.68;;
17832;SDS011;9041;49.718;21.798;2023-07-24T11:27:59;7.65;;;5.40;;
17832;SDS011;9041;49.718;21.798;2023-07-24T11:30:26;10.38;;;5.63;;
17832;SDS011;9041;49.718;21.798;2023-07-24T11:32:52;7.63;;;5.53;;
17832;SDS011;9041;49.718;21.798;2023-07-24T11:35:19;9.50;;;5.70;;
17832;SDS011;9041;49.718;21.798;2023-07-24T11:37:47;10.10;;;6.10;;
17832;SDS011;9041;49.718;21.798;2023-07-24T11:40:15;11.82;;;6.18;;
17832;SDS011;9041;49.718;21.798;2023-07-24T11:42:44;8.68;;;5.78;;
17832;SDS011;9041;49.718;21.798;2023-07-24T11:45:12;8.82;;;5.80;;
17832;SDS011;9041;49.718;21.798;2023-07-24T11:47:43;9.80;;;5.35;;
17832;SDS011;9041;49.718;21.798;2023-07-24T11:50:12;9.45;;;5.85;;
17832;SDS011;9041;49.718;21.798;2023-07-24T11:52:42;9.63;;;5.57;;
17832;SDS011;9041;49.718;21.798;2023-07-24T11:55:09;10.32;;;5.97;;
17832;SDS011;9041;49.718;21.798;2023-07-24T11:57:37;9.63;;;5.80;;
17832;SDS011;9041;49.718;21.798;2023-07-24T12:00:05;7.40;;;5.90;;
17832;SDS011;9041;49.718;21.798;2023-07-24T12:02:33;9.05;;;6.18;;
17832;SDS011;9041;49.718;21.798;2023-07-24T12:05:00;9.82;;;5.95;;
17832;SDS011;9041;49.718;21.798;2023-07-24T12:07:31;9.90;;;5.68;;
17832;SDS011;9041;49.718;21.798;2023-07-24T12:09:58;9.35;;;6.10;;
17832;SDS011;9041;49.718;21.798;2023-07-24T12:12:27;10.23;;;6.30;;
17832;SDS011;9041;49.718;21.798;2023-07-24T12:15:05;12.85;;;6.70;;
17832;SDS011;9041;49.718;21.798;2023-07-24T12:17:32;10.10;;;6.15;;
17832;SDS011;9041;49.718;21.798;2023-07-24T12:19:58;10.77;;;6.55;;
17832;SDS011;9041;49.718;21.798;2023-07-24T12:22:26;13.25;;;6.07;;
17832;SDS011;9041;49.718;21.798;2023-07-24T12:24:52;11.93;;;6.53;;
17832;SDS011;9041;49.718;21.798;2023-07-24T12:27:19;8.15;;;5.97;;
17832;SDS011;9041;49.718;21.798;2023-07-24T12:29:47;9.52;;;5.93;;
17832;SDS011;9041;49.718;21.798;2023-07-24T12:32:14;8.63;;;6.20;;
17832;SDS011;9041;49.718;21.798;2023-07-24T12:34:40;10.05;;;6.30;;
17832;SDS011;9041;49.718;21.798;2023-07-24T12:37:07;9.68;;;6.80;;
17832;SDS011;9041;49.718;21.798;2023-07-24T12:39:33;9.80;;;7.43;;
17832;SDS011;9041;49.718;21.798;2023-07-24T12:42:00;10.80;;;6.28;;
17832;SDS011;9041;49.718;21.798;2023-07-24T12:44:27;12.57;;;7.25;;
17832;SDS011;9041;49.718;21.798;2023-07-24T12:46:55;11.68;;;6.97;;
17832;SDS011;9041;49.718;21.798;2023-07-24T12:49:21;10.15;;;5.95;;
17832;SDS011;9041;49.718;21.798;2023-07-24T12:51:50;11.18;;;6.45;;
17832;SDS011;9041;49.718;21.798;2023-07-24T12:54:17;14.00;;;6.75;;
17832;SDS011;9041;49.718;21.798;2023-07-24T12:56:45;12.32;;;6.60;;
17832;SDS011;9041;49.718;21.798;2023-07-24T12:59:11;8.18;;;6.70;;
17832;SDS011;9041;49.718;21.798;2023-07-24T13:01:38;10.88;;;6.97;;
17832;SDS011;9041;49.718;21.798;2023-07-24T13:04:06;10.50;;;6.97;;
17832;SDS011;9041;49.718;21.798;2023-07-24T13:06:33;12.32;;;7.07;;
17832;SDS011;9041;49.718;21.798;2023-07-24T13:09:00;9.88;;;7.35;;
17832;SDS011;9041;49.718;21.798;2023-07-24T13:11:27;8.50;;;6.50;;
17832;SDS011;9041;49.718;21.798;2023-07-24T13:13:54;11.43;;;7.10;;
17832;SDS011;9041;49.718;21.798;2023-07-24T13:16:21;12.48;;;7.25;;
17832;SDS011;9041;49.718;21.798;2023-07-24T13:18:48;12.50;;;7.55;;
17832;SDS011;9041;49.718;21.798;2023-07-24T13:21:16;15.13;;;7.50;;
17832;SDS011;9041;49.718;21.798;2023-07-24T13:23:42;10.35;;;7.18;;
17832;SDS011;9041;49.718;21.798;2023-07-24T13:26:09;10.68;;;7.05;;
17832;SDS011;9041;49.718;21.798;2023-07-24T13:28:37;13.77;;;7.93;;
17832;SDS011;9041;49.718;21.798;2023-07-24T13:31:11;15.65;;;7.90;;
17832;SDS011;9041;49.718;21.798;2023-07-24T13:33:38;10.32;;;7.68;;
17832;SDS011;9041;49.718;21.798;2023-07-24T13:36:05;13.27;;;7.78;;
17832;SDS011;9041;49.718;21.798;2023-07-24T13:38:33;15.18;;;7.85;;
17832;SDS011;9041;49.718;21.798;2023-07-24T13:41:00;14.55;;;7.45;;
17832;SDS011;9041;49.718;21.798;2023-07-24T13:43:26;11.40;;;7.30;;
17832;SDS011;9041;49.718;21.798;2023-07-24T13:45:55;10.00;;;7.20;;
17832;SDS011;9041;49.718;21.798;2023-07-24T13:48:22;10.48;;;7.22;;
17832;SDS011;9041;49.718;21.798;2023-07-24T13:50:49;12.15;;;7.47;;
17832;SDS011;9041;49.718;21.798;2023-07-24T13:53:16;14.65;;;8.05;;
17832;SDS011;9041;49.718;21.798;2023-07-24T13:58:35;11.13;;;8.10;;
17832;SDS011;9041;49.718;21.798;2023-07-24T14:01:02;17.00;;;8.57;;
17832;SDS011;9041;49.718;21.798;2023-07-24T14:03:31;12.25;;;8.10;;
17832;SDS011;9041;49.718;21.798;2023-07-24T14:05:58;18.77;;;9.32;;
17832;SDS011;9041;49.718;21.798;2023-07-24T14:08:24;11.93;;;8.18;;
17832;SDS011;9041;49.718;21.798;2023-07-24T14:10:51;10.93;;;7.68;;
17832;SDS011;9041;49.718;21.798;2023-07-24T14:13:17;15.40;;;8.70;;
17832;SDS011;9041;49.718;21.798;2023-07-24T14:15:45;11.68;;;7.53;;
17832;SDS011;9041;49.718;21.798;2023-07-24T14:18:12;11.70;;;8.00;;
17832;SDS011;9041;49.718;21.798;2023-07-24T14:20:39;11.98;;;7.90;;
17832;SDS011;9041;49.718;21.798;2023-07-24T14:23:06;14.30;;;9.02;;
17832;SDS011;9041;49.718;21.798;2023-07-24T14:25:33;13.00;;;8.35;;
17832;SDS011;9041;49.718;21.798;2023-07-24T14:27:59;14.25;;;8.70;;
17832;SDS011;9041;49.718;21.798;2023-07-24T14:30:26;15.20;;;8.50;;
17832;SDS011;9041;49.718;21.798;2023-07-24T14:32:54;11.95;;;8.27;;
17832;SDS011;9041;49.718;21.798;2023-07-24T14:35:21;14.07;;;9.10;;
17832;SDS011;9041;49.718;21.798;2023-07-24T14:37:47;13.93;;;8.50;;
17832;SDS011;9041;49.718;21.798;2023-07-24T14:40:14;14.35;;;8.77;;
17832;SDS011;9041;49.718;21.798;2023-07-24T14:42:41;15.32;;;9.05;;
17832;SDS011;9041;49.718;21.798;2023-07-24T14:45:08;14.80;;;8.95;;
17832;SDS011;9041;49.718;21.798;2023-07-24T14:47:35;14.60;;;8.77;;